Time;durP1;ratioP1;P1;durP2;ratioP2;P2;SDS_P1;SDS_P2;PMS_P1;PMS_P2;Temp;Humidity;BMP_temperature;BMP_pressure;BME280_temperature;BME280_humidity;BME280_pressure;Samples;Min_cycle;Max_cycle;Signal;HPM_P1;HPM_P2
2023/03/04 00:01:03;;;;;;;18.63;2.80;;;5.90;99.90;;;;;;5032449;28;20073;-68
2023/03/04 00:03:28;;;;;;;20.67;2.97;;;5.90;99.90;;;;;;5033040;28;20523;-69
2023/03/04 00:05:54;;;;;;;11.48;2.55;;;5.90;99.90;;;;;;5032244;28;20521;-68
2023/03/04 00:08:20;;;;;;;17.08;2.63;;;5.80;99.90;;;;;;5032121;28;20077;-68
2023/03/04 00:10:45;;;;;;;19.60;3.35;;;5.90;99.90;;;;;;5034533;28;20047;-67
2023/03/04 00:13:11;;;;;;;18.30;2.58;;;5.80;99.90;;;;;;5033524;28;20478;-67
2023/03/04 00:15:37;;;;;;;14.63;2.80;;;6.00;99.90;;;;;;5031314;28;20069;-67
2023/03/04 00:18:02;;;;;;;15.00;2.65;;;5.90;99.90;;;;;;5031621;28;20139;-68
2023/03/04 00:20:28;;;;;;;16.75;2.20;;;5.90;99.90;;;;;;5047386;28;20041;-67
2023/03/04 00:22:53;;;;;;;16.05;2.58;;;5.90;99.90;;;;;;5030234;28;20038;-68
2023/03/04 00:25:19;;;;;;;32.70;3.30;;;5.90;99.90;;;;;;5030940;28;20140;-68
2023/03/04 00:27:46;;;;;;;17.95;2.78;;;5.90;99.90;;;;;;5031840;28;20033;-68
2023/03/04 00:30:12;;;;;;;14.57;2.20;;;5.90;99.90;;;;;;5027463;28;20088;-69
2023/03/04 00:32:37;;;;;;;13.40;2.40;;;5.90;99.90;;;;;;5032671;28;20049;-68
2023/03/04 00:35:05;;;;;;;13.38;2.75;;;5.90;99.90;;;;;;5033273;28;20502;-68
2023/03/04 00:37:31;;;;;;;12.52;2.60;;;5.90;99.90;;;;;;5032229;28;20041;-68
2023/03/04 00:39:57;;;;;;;10.35;2.60;;;5.90;99.90;;;;;;5032554;28;20094;-68
2023/03/04 00:42:22;;;;;;;17.23;2.95;;;6.00;99.90;;;;;;5021801;28;20042;-68
2023/03/04 00:44:48;;;;;;;13.65;2.30;;;5.90;99.90;;;;;;5029861;28;20118;-69
2023/03/04 00:47:14;;;;;;;14.70;2.10;;;5.80;99.90;;;;;;5033052;28;20045;-67
2023/03/04 00:49:40;;;;;;;13.15;2.63;;;5.90;99.90;;;;;;5033904;28;20041;-68
2023/03/04 00:52:05;;;;;;;8.35;2.00;;;5.90;99.90;;;;;;5033764;28;20037;-68
2023/03/04 00:54:31;;;;;;;18.90;2.50;;;5.90;99.90;;;;;;5022944;28;20506;-68
2023/03/04 00:56:57;;;;;;;16.55;2.30;;;6.00;99.90;;;;;;5012520;28;20096;-69
2023/03/04 00:59:23;;;;;;;8.63;2.00;;;5.90;99.90;;;;;;5025493;28;20033;-68
2023/03/04 01:01:48;;;;;;;16.60;2.72;;;5.90;99.90;;;;;;5049434;28;20041;-68
2023/03/04 01:04:14;;;;;;;27.30;3.22;;;5.90;99.90;;;;;;5033967;28;20073;-68
2023/03/04 01:06:39;;;;;;;12.95;2.70;;;5.90;99.90;;;;;;5032287;28;20103;-67
2023/03/04 01:09:05;;;;;;;16.80;1.98;;;5.90;99.90;;;;;;5033546;28;20041;-68
2023/03/04 01:11:31;;;;;;;21.15;2.80;;;6.00;99.90;;;;;;5031559;28;20041;-67
2023/03/04 01:13:57;;;;;;;24.08;3.45;;;5.90;99.90;;;;;;5030697;28;20043;-67
2023/03/04 01:16:22;;;;;;;12.55;2.80;;;5.90;99.90;;;;;;5027045;28;20498;-67
2023/03/04 01:18:48;;;;;;;24.80;4.18;;;5.90;99.90;;;;;;5027459;28;20037;-68
2023/03/04 01:21:13;;;;;;;33.90;3.70;;;5.90;99.90;;;;;;5032392;28;20424;-68
2023/03/04 01:23:39;;;;;;;16.92;2.55;;;5.80;99.90;;;;;;5031585;28;20037;-68
2023/03/04 01:26:05;;;;;;;16.25;3.08;;;5.80;99.90;;;;;;5029389;28;20037;-68
2023/03/04 01:28:34;;;;;;;20.05;3.75;;;5.80;99.90;;;;;;5031056;28;20176;-67
2023/03/04 01:31:03;;;;;;;15.57;2.70;;;5.90;99.90;;;;;;5031367;28;20072;-67
2023/03/04 01:33:29;;;;;;;17.63;3.22;;;5.80;99.90;;;;;;5032554;28;20037;-68
2023/03/04 01:35:55;;;;;;;16.88;3.08;;;5.70;99.90;;;;;;5032800;28;20041;-68
2023/03/04 01:38:21;;;;;;;11.80;2.78;;;5.70;99.90;;;;;;5032921;28;20121;-68
2023/03/04 01:40:48;;;;;;;15.32;2.50;;;5.70;99.90;;;;;;5030573;28;20124;-68
2023/03/04 01:43:22;;;;;;;16.30;2.55;;;5.70;99.90;;;;;;5032610;28;20049;-72
2023/03/04 01:45:49;;;;;;;15.15;2.53;;;5.70;99.90;;;;;;5030037;28;20040;-68
2023/03/04 01:48:19;;;;;;;11.18;2.80;;;5.70;99.90;;;;;;5015670;28;20056;-68
2023/03/04 01:50:44;;;;;;;17.58;3.05;;;5.70;99.90;;;;;;5012331;28;20407;-68
2023/03/04 01:53:22;;;;;;;15.80;2.33;;;5.70;99.90;;;;;;5022044;28;20047;-72
2023/03/04 01:55:50;;;;;;;18.08;3.40;;;5.70;99.90;;;;;;5031808;28;20136;-67
2023/03/04 01:58:16;;;;;;;;;;;5.70;99.90;;;;;;5032844;28;20041;-67
2023/03/04 02:00:42;;;;;;;14.70;2.88;;;5.60;99.90;;;;;;5031522;28;20012;-67
2023/03/04 02:03:11;;;;;;;19.25;2.88;;;5.70;99.90;;;;;;5031960;28;20057;-67
2023/03/04 02:05:43;;;;;;;17.27;3.20;;;5.60;99.90;;;;;;5028530;28;20513;-68
2023/03/04 02:08:09;;;;;;;13.25;2.60;;;5.60;99.90;;;;;;5020406;28;20069;-68
2023/03/04 02:10:35;;;;;;;15.32;2.90;;;5.50;99.90;;;;;;5031795;28;20050;-68
2023/03/04 02:13:02;;;;;;;19.33;2.92;;;5.50;99.90;;;;;;5028893;28;20120;-68
2023/03/04 02:15:29;;;;;;;22.33;2.95;;;5.50;99.90;;;;;;5031852;28;20053;-68
2023/03/04 02:17:55;;;;;;;10.45;2.53;;;5.50;99.90;;;;;;5030662;28;20030;-67
2023/03/04 02:20:48;;;;;;;14.35;2.47;;;5.50;99.90;;;;;;5029648;28;20065;-66
2023/03/04 02:23:36;;;;;;;18.08;2.85;;;5.50;99.90;;;;;;5031633;28;20053;-68
2023/03/04 02:26:26;;;;;;;13.10;2.28;;;5.50;99.90;;;;;;5030930;28;20057;-67
2023/03/04 02:28:54;;;;;;;18.63;2.65;;;5.50;99.90;;;;;;5032286;28;20045;-67
2023/03/04 02:31:34;;;;;;;12.38;2.40;;;5.50;99.90;;;;;;5031287;28;20041;-67
2023/03/04 02:34:06;;;;;;;17.05;2.30;;;5.50;99.90;;;;;;5034065;28;20049;-68
2023/03/04 02:36:33;;;;;;;16.05;2.60;;;5.60;99.90;;;;;;5033852;28;21142;-67
2023/03/04 02:39:12;;;;;;;12.68;2.90;;;5.60;99.90;;;;;;5028007;28;20120;-67
2023/03/04 02:41:37;;;;;;;;;;;5.60;99.90;;;;;;5030738;28;20064;-67
2023/03/04 02:44:35;;;;;;;19.25;2.67;;;5.50;99.90;;;;;;5030356;28;19921;-68
2023/03/04 02:47:02;;;;;;;18.00;2.92;;;5.50;99.90;;;;;;5023166;28;20053;-67
2023/03/04 02:49:31;;;;;;;12.60;2.30;;;5.60;99.90;;;;;;5023265;28;20038;-67
2023/03/04 02:52:04;;;;;;;12.85;2.75;;;5.60;99.90;;;;;;5032962;28;20049;-67
2023/03/04 02:54:30;;;;;;;14.98;2.55;;;5.60;99.90;;;;;;5032944;28;20041;-67
2023/03/04 02:56:59;;;;;;;17.65;3.13;;;5.60;99.90;;;;;;5028020;28;20033;-67
2023/03/04 02:59:24;;;;;;;14.77;2.70;;;5.60;99.90;;;;;;5035474;28;20052;-67
2023/03/04 03:01:50;;;;;;;16.77;2.47;;;5.60;99.90;;;;;;5014710;28;20391;-67
2023/03/04 03:04:18;;;;;;;15.32;2.10;;;5.60;99.90;;;;;;5034149;28;20118;-66
2023/03/04 03:06:44;;;;;;;12.55;1.98;;;5.60;99.90;;;;;;5016035;28;20499;-67
2023/03/04 03:09:09;;;;;;;9.48;2.45;;;5.70;99.90;;;;;;5029106;28;20041;-67
2023/03/04 03:11:35;;;;;;;16.98;3.28;;;5.60;99.90;;;;;;5028372;28;20037;-67
2023/03/04 03:14:01;;;;;;;14.05;2.53;;;5.60;99.90;;;;;;5026679;28;20045;-67
2023/03/04 03:16:27;;;;;;;18.70;2.28;;;5.60;99.90;;;;;;5031708;28;20061;-67
2023/03/04 03:18:53;;;;;;;12.65;2.38;;;5.60;99.90;;;;;;5020539;28;20172;-67
2023/03/04 03:21:18;;;;;;;17.55;3.35;;;5.70;99.90;;;;;;5034260;28;20109;-67
2023/03/04 03:23:44;;;;;;;14.63;2.20;;;5.70;99.90;;;;;;5022145;28;20036;-69
2023/03/04 03:26:09;;;;;;;17.42;2.40;;;5.60;99.90;;;;;;5034070;28;20433;-66
2023/03/04 03:28:35;;;;;;;11.20;2.30;;;5.60;99.90;;;;;;5031140;28;20117;-67
2023/03/04 03:31:01;;;;;;;12.82;2.38;;;5.70;99.90;;;;;;5029539;28;20128;-67
2023/03/04 03:33:27;;;;;;;11.30;1.88;;;5.70;99.90;;;;;;5027993;28;20401;-67
2023/03/04 03:35:52;;;;;;;16.90;2.97;;;5.60;99.90;;;;;;5034293;28;20033;-67
2023/03/04 03:38:18;;;;;;;12.93;2.55;;;5.70;99.90;;;;;;5015507;28;20052;-68
2023/03/04 03:40:44;;;;;;;8.25;2.17;;;5.60;99.90;;;;;;5030647;28;20069;-67
2023/03/04 03:43:10;;;;;;;10.70;1.92;;;5.60;99.90;;;;;;5028070;28;20041;-69
2023/03/04 03:45:36;;;;;;;10.23;2.08;;;5.60;99.90;;;;;;5029729;28;20046;-67
2023/03/04 03:48:01;;;;;;;10.55;2.22;;;5.60;99.90;;;;;;5033592;28;20041;-67
2023/03/04 03:50:28;;;;;;;17.13;2.35;;;5.80;99.90;;;;;;5035219;28;20049;-67
2023/03/04 03:52:54;;;;;;;7.70;1.55;;;5.70;99.90;;;;;;5034672;28;20103;-67
2023/03/04 03:55:20;;;;;;;11.20;2.28;;;5.70;99.90;;;;;;5032804;28;20048;-68
2023/03/04 03:57:46;;;;;;;11.50;2.25;;;5.70;99.90;;;;;;5033981;28;20034;-67
2023/03/04 04:00:12;;;;;;;17.50;2.13;;;5.60;99.90;;;;;;5032339;28;20392;-67
2023/03/04 04:02:39;;;;;;;11.15;2.42;;;5.60;99.90;;;;;;5032171;28;20041;-67
2023/03/04 04:05:05;;;;;;;12.27;2.15;;;5.60;99.90;;;;;;5033452;28;20213;-67
2023/03/04 04:07:31;;;;;;;11.85;1.95;;;5.70;99.90;;;;;;5034050;28;20072;-68
2023/03/04 04:09:57;;;;;;;17.50;2.13;;;5.70;99.90;;;;;;5033279;28;20509;-68
2023/03/04 04:12:22;;;;;;;17.15;2.70;;;5.70;99.90;;;;;;5033638;28;20038;-68
2023/03/04 04:14:48;;;;;;;15.82;2.83;;;5.70;99.90;;;;;;5033778;28;20048;-71
2023/03/04 04:17:14;;;;;;;10.82;1.88;;;5.60;99.90;;;;;;5031445;28;20045;-68
2023/03/04 04:19:40;;;;;;;15.32;2.75;;;5.60;99.90;;;;;;5029444;28;20042;-68
2023/03/04 04:22:07;;;;;;;12.85;2.53;;;5.60;99.90;;;;;;5015742;28;20045;-67
2023/03/04 04:24:34;;;;;;;12.93;1.92;;;5.70;99.90;;;;;;5020988;28;20560;-67
2023/03/04 04:27:00;;;;;;;10.40;2.03;;;5.70;99.90;;;;;;5030781;28;20045;-67
2023/03/04 04:29:26;;;;;;;12.60;1.95;;;5.70;99.90;;;;;;5033591;28;20049;-68
2023/03/04 04:31:51;;;;;;;12.68;2.63;;;5.70;99.90;;;;;;5031666;28;20052;-68
2023/03/04 04:34:17;;;;;;;12.45;2.20;;;5.70;99.90;;;;;;5033024;28;20068;-69
2023/03/04 04:36:43;;;;;;;16.45;2.40;;;5.70;99.90;;;;;;5047959;28;20037;-68
2023/03/04 04:39:09;;;;;;;17.45;2.50;;;5.80;99.90;;;;;;5032845;28;20518;-68
2023/03/04 04:41:40;;;;;;;16.25;2.53;;;5.70;99.90;;;;;;5029318;28;20085;-68
2023/03/04 04:44:06;;;;;;;9.13;2.10;;;5.70;99.90;;;;;;5031359;28;20457;-67
2023/03/04 04:46:32;;;;;;;10.63;2.00;;;5.70;99.90;;;;;;5025479;28;20038;-68
2023/03/04 04:48:58;;;;;;;12.63;2.25;;;5.70;99.90;;;;;;5029108;28;20116;-68
2023/03/04 04:51:24;;;;;;;13.07;2.47;;;5.70;99.90;;;;;;5032958;28;20116;-68
2023/03/04 04:53:50;;;;;;;16.60;2.53;;;5.70;99.90;;;;;;5025741;28;20406;-68
2023/03/04 04:56:19;;;;;;;18.17;2.63;;;5.70;99.90;;;;;;5028024;28;20049;-68
2023/03/04 04:58:46;;;;;;;15.48;1.90;;;5.70;99.90;;;;;;5033921;28;20049;-68
2023/03/04 05:01:12;;;;;;;20.02;2.22;;;5.70;99.90;;;;;;5014141;28;20447;-68
2023/03/04 05:03:39;;;;;;;13.20;2.25;;;5.70;99.90;;;;;;5015746;28;20060;-68
2023/03/04 05:06:07;;;;;;;17.75;2.33;;;5.70;99.90;;;;;;5032221;28;20495;-68
2023/03/04 05:08:33;;;;;;;10.73;1.88;;;5.70;99.90;;;;;;5033113;28;20045;-68
2023/03/04 05:10:59;;;;;;;9.23;1.65;;;5.80;99.90;;;;;;5025527;28;20057;-67
2023/03/04 05:13:25;;;;;;;16.20;2.72;;;5.80;99.90;;;;;;5023268;28;20041;-68
2023/03/04 05:15:52;;;;;;;17.90;2.15;;;5.70;99.90;;;;;;5031409;28;20535;-67
2023/03/04 05:18:18;;;;;;;14.15;2.03;;;5.70;99.90;;;;;;5029027;28;20092;-68
2023/03/04 05:20:44;;;;;;;17.23;3.00;;;5.70;99.90;;;;;;5032756;28;20045;-67
2023/03/04 05:23:10;;;;;;;15.18;3.28;;;5.70;99.90;;;;;;5031376;28;20041;-67
2023/03/04 05:25:35;;;;;;;12.35;2.40;;;5.70;99.90;;;;;;5032457;28;20060;-67
2023/03/04 05:28:03;;;;;;;17.73;2.03;;;5.70;99.90;;;;;;5032555;28;20117;-68
2023/03/04 05:30:29;;;;;;;10.73;1.73;;;5.60;99.90;;;;;;5027161;28;20509;-68
2023/03/04 05:32:54;;;;;;;15.93;2.42;;;5.70;99.90;;;;;;5030416;28;20041;-68
2023/03/04 05:35:20;;;;;;;10.88;2.42;;;5.60;99.90;;;;;;5031357;28;20063;-68
2023/03/04 05:37:46;;;;;;;6.00;1.92;;;5.60;99.90;;;;;;5031976;28;20095;-68
2023/03/04 05:40:12;;;;;;;14.18;2.40;;;5.60;99.90;;;;;;5030847;28;20053;-69
2023/03/04 05:42:37;;;;;;;12.00;2.22;;;5.60;99.90;;;;;;5030701;28;20054;-71
2023/03/04 05:45:04;;;;;;;14.13;2.75;;;5.50;99.90;;;;;;5030459;28;20407;-67
2023/03/04 05:47:29;;;;;;;13.88;2.40;;;5.60;99.90;;;;;;5026514;28;20038;-68
2023/03/04 05:49:56;;;;;;;23.00;2.95;;;5.60;99.90;;;;;;5031444;28;20040;-69
2023/03/04 05:52:22;;;;;;;17.92;2.45;;;5.50;99.90;;;;;;5028365;28;20073;-68
2023/03/04 05:54:48;;;;;;;19.00;2.88;;;5.50;99.90;;;;;;5032307;28;20130;-67
2023/03/04 05:57:13;;;;;;;11.00;2.95;;;5.60;99.90;;;;;;5030783;28;20065;-67
2023/03/04 05:59:39;;;;;;;11.27;2.28;;;5.50;99.90;;;;;;5031813;28;20502;-68
2023/03/04 06:02:05;;;;;;;13.02;3.05;;;5.50;99.90;;;;;;5031343;28;20045;-67
2023/03/04 06:04:30;;;;;;;17.20;2.25;;;5.50;99.90;;;;;;5031559;28;20095;-67
2023/03/04 06:06:56;;;;;;;17.33;2.60;;;5.50;99.90;;;;;;5033868;28;20037;-68
2023/03/04 06:09:21;;;;;;;15.73;2.42;;;5.50;99.90;;;;;;5036594;28;20041;-68
2023/03/04 06:11:47;;;;;;;15.95;2.53;;;5.50;99.90;;;;;;5035223;28;20045;-68
2023/03/04 06:14:13;;;;;;;16.40;2.10;;;5.60;99.90;;;;;;5036190;28;20398;-67
2023/03/04 06:16:38;;;;;;;12.20;2.58;;;5.60;99.90;;;;;;5034789;28;20042;-67
2023/03/04 06:19:04;;;;;;;10.43;1.80;;;5.60;99.90;;;;;;5035200;28;20042;-68
2023/03/04 06:21:30;;;;;;;11.57;2.50;;;5.60;99.90;;;;;;5034544;28;20056;-68
2023/03/04 06:23:55;;;;;;;13.45;2.65;;;5.50;99.90;;;;;;5029759;28;20506;-68
2023/03/04 06:26:21;;;;;;;9.57;2.22;;;5.50;99.90;;;;;;5027852;28;20453;-68
2023/03/04 06:28:47;;;;;;;10.57;2.20;;;5.50;99.90;;;;;;5033880;28;20037;-68
2023/03/04 06:31:12;;;;;;;10.93;2.47;;;5.40;99.90;;;;;;5034476;28;20563;-69
2023/03/04 06:33:38;;;;;;;7.43;2.22;;;5.50;99.90;;;;;;5034762;28;20092;-69
2023/03/04 06:36:04;;;;;;;13.77;2.10;;;5.50;99.90;;;;;;5035995;28;20128;-69
2023/03/04 06:38:29;;;;;;;14.23;2.58;;;5.40;99.90;;;;;;5034063;28;20087;-68
2023/03/04 06:40:55;;;;;;;21.63;2.15;;;5.40;99.90;;;;;;5035157;28;20124;-69
2023/03/04 06:43:21;;;;;;;11.95;2.20;;;5.40;99.90;;;;;;5036429;28;20040;-68
2023/03/04 06:45:47;;;;;;;15.05;2.00;;;5.50;99.90;;;;;;5032880;28;20517;-68
2023/03/04 06:48:13;;;;;;;8.60;1.95;;;5.40;99.90;;;;;;5036513;28;20076;-69
2023/03/04 06:50:39;;;;;;;17.20;3.35;;;5.40;99.90;;;;;;5016384;28;20077;-68
2023/03/04 06:53:05;;;;;;;12.77;2.28;;;5.40;99.90;;;;;;5022699;28;20056;-68
2023/03/04 06:55:30;;;;;;;16.65;2.95;;;5.40;99.90;;;;;;5034670;28;20037;-68
2023/03/04 06:57:56;;;;;;;20.92;2.70;;;5.50;99.90;;;;;;5031828;28;20229;-67
2023/03/04 07:00:25;;;;;;;17.85;2.55;;;5.40;99.90;;;;;;5035540;28;20053;-67
2023/03/04 07:02:51;;;;;;;13.88;2.00;;;5.50;99.90;;;;;;5034985;28;20041;-66
2023/03/04 07:05:16;;;;;;;20.15;2.40;;;5.50;99.90;;;;;;5035733;28;20049;-67
2023/03/04 07:07:42;;;;;;;12.68;2.05;;;5.50;99.90;;;;;;5027237;28;20390;-69
2023/03/04 07:10:09;;;;;;;13.48;1.98;;;5.50;99.90;;;;;;5025944;28;20034;-68
2023/03/04 07:12:35;;;;;;;14.85;2.05;;;5.60;99.90;;;;;;5030220;28;20071;-68
2023/03/04 07:15:01;;;;;;;12.45;2.40;;;5.60;99.90;;;;;;5032375;28;20478;-68
2023/03/04 07:17:27;;;;;;;10.15;2.15;;;5.60;99.90;;;;;;5032168;28;20040;-67
2023/03/04 07:19:53;;;;;;;12.50;2.05;;;5.70;99.90;;;;;;5033799;28;20041;-68
2023/03/04 07:22:18;;;;;;;7.03;1.50;;;5.70;99.90;;;;;;5035079;28;20486;-68
2023/03/04 07:24:44;;;;;;;9.57;1.80;;;5.70;99.90;;;;;;5032860;28;20471;-68
2023/03/04 07:27:09;;;;;;;9.85;2.05;;;5.70;99.90;;;;;;5027296;28;20395;-68
2023/03/04 07:29:35;;;;;;;8.68;1.73;;;5.70;99.90;;;;;;5034417;28;20390;-68
2023/03/04 07:32:01;;;;;;;9.52;2.00;;;5.70;99.90;;;;;;5019297;28;20044;-68
2023/03/04 07:34:26;;;;;;;14.57;2.17;;;5.70;99.90;;;;;;5030542;28;20153;-68
2023/03/04 07:36:52;;;;;;;11.05;2.58;;;5.80;99.90;;;;;;5032632;28;20113;-68
2023/03/04 07:39:18;;;;;;;13.07;2.28;;;5.80;99.90;;;;;;5031945;28;20087;-68
2023/03/04 07:41:43;;;;;;;15.63;2.30;;;5.80;99.90;;;;;;5031898;28;20037;-68
2023/03/04 07:44:12;;;;;;;10.23;2.58;;;5.80;99.90;;;;;;5029854;28;20121;-68
2023/03/04 07:46:37;;;;;;;;;;;5.90;99.90;;;;;;5029036;28;20457;-68
2023/03/04 07:49:03;;;;;;;11.15;2.33;;;5.90;99.90;;;;;;5033102;28;19928;-67
2023/03/04 07:51:29;;;;;;;16.83;2.65;;;5.90;99.90;;;;;;5028245;28;20125;-69
2023/03/04 07:53:58;;;;;;;26.20;4.18;;;5.90;99.90;;;;;;5032963;28;20041;-68
2023/03/04 07:56:26;;;;;;;20.50;3.13;;;5.90;99.90;;;;;;5031197;28;20059;-69
2023/03/04 07:58:52;;;;;;;;;;;5.80;99.90;;;;;;5034383;28;20034;-69
2023/03/04 08:01:20;;;;;;;20.42;3.13;;;5.70;99.90;;;;;;5028707;28;19925;-69
2023/03/04 08:03:46;;;;;;;;;;;5.70;99.90;;;;;;5015263;28;20096;-68
2023/03/04 08:06:18;;;;;;;32.63;4.50;;;5.70;99.90;;;;;;5014674;28;19921;-68
2023/03/04 08:08:45;;;;;;;20.73;3.00;;;5.60;99.90;;;;;;5030288;28;20041;-68
2023/03/04 08:11:14;;;;;;;26.33;4.28;;;5.70;99.90;;;;;;5031018;28;20034;-68
2023/03/04 08:13:42;;;;;;;24.25;4.20;;;5.60;99.90;;;;;;5027962;28;20087;-68
2023/03/04 08:16:14;;;;;;;38.55;4.45;;;5.80;99.90;;;;;;5028149;28;20124;-67
2023/03/04 08:18:44;;;;;;;34.63;4.95;;;5.70;99.90;;;;;;5030741;28;20045;-68
2023/03/04 08:21:12;;;;;;;36.30;4.30;;;5.70;99.90;;;;;;5030816;28;20116;-68
2023/03/04 08:23:38;;;;;;;33.70;4.75;;;5.60;99.90;;;;;;5033394;28;20047;-68
2023/03/04 08:26:13;;;;;;;38.13;4.78;;;5.70;99.90;;;;;;5034404;28;20049;-68
2023/03/04 08:28:40;;;;;;;31.77;5.40;;;5.70;99.90;;;;;;5034093;28;20051;-68
2023/03/04 08:31:06;;;;;;;28.85;4.00;;;5.70;99.90;;;;;;5034730;28;20052;-68
2023/03/04 08:33:32;;;;;;;32.60;4.97;;;5.80;99.90;;;;;;5036767;28;20045;-68
2023/03/04 08:35:58;;;;;;;37.10;4.82;;;5.80;99.90;;;;;;5023690;28;20037;-68
2023/03/04 08:38:24;;;;;;;25.15;3.58;;;5.80;99.90;;;;;;5032314;28;20060;-68
2023/03/04 08:40:55;;;;;;;33.40;4.60;;;5.80;99.90;;;;;;5026693;28;20496;-68
2023/03/04 08:43:21;;;;;;;26.52;4.20;;;5.80;99.90;;;;;;5030985;28;20114;-68
2023/03/04 08:45:47;;;;;;;34.70;3.80;;;5.90;99.90;;;;;;5027992;28;20037;-68
2023/03/04 08:48:13;;;;;;;31.65;5.05;;;5.90;99.90;;;;;;5031134;28;20087;-68
2023/03/04 08:50:47;;;;;;;37.28;4.45;;;5.90;99.90;;;;;;5101654;27;20773;-67
2023/03/04 08:53:13;;;;;;;28.17;3.75;;;6.00;99.90;;;;;;5098403;28;20071;-68
2023/03/04 08:55:40;;;;;;;22.67;3.88;;;6.00;99.90;;;;;;5089930;28;20374;-70
2023/03/04 08:58:06;;;;;;;29.25;4.60;;;6.00;99.90;;;;;;5090369;28;20070;-68
2023/03/04 09:00:33;;;;;;;22.55;4.22;;;6.00;99.90;;;;;;5084168;28;20044;-69
2023/03/04 09:02:58;;;;;;;21.10;3.45;;;6.10;99.90;;;;;;5081006;28;20126;-69
2023/03/04 09:05:24;;;;;;;20.90;3.40;;;6.10;99.90;;;;;;5081752;28;20147;-68
2023/03/04 09:07:50;;;;;;;24.95;3.42;;;6.20;99.90;;;;;;5073670;28;20096;-69
2023/03/04 09:10:15;;;;;;;14.45;2.88;;;6.20;99.90;;;;;;5088720;28;20055;-69
2023/03/04 09:12:41;;;;;;;24.98;3.28;;;6.20;99.90;;;;;;5081591;28;20043;-68
2023/03/04 09:15:07;;;;;;;10.15;2.47;;;6.20;99.90;;;;;;5089237;28;20093;-69
2023/03/04 09:17:33;;;;;;;14.43;3.08;;;6.20;99.90;;;;;;5087067;28;20037;-70
2023/03/04 09:20:00;;;;;;;15.30;2.53;;;6.50;99.90;;;;;;5088589;28;20044;-69
2023/03/04 09:22:25;;;;;;;22.17;3.25;;;6.30;99.90;;;;;;5087587;28;20033;-69
2023/03/04 09:24:51;;;;;;;8.65;2.17;;;6.20;99.90;;;;;;5090021;28;20158;-69
2023/03/04 09:27:16;;;;;;;14.18;2.47;;;6.10;99.90;;;;;;5089452;28;20158;-68
2023/03/04 09:29:44;;;;;;;11.07;2.05;;;6.10;99.90;;;;;;5070553;28;20048;-68
2023/03/04 09:32:10;;;;;;;12.65;2.38;;;6.10;99.90;;;;;;5087886;28;20044;-68
2023/03/04 09:34:35;;;;;;;12.23;2.28;;;6.10;99.90;;;;;;5082766;28;20098;-69
2023/03/04 09:37:01;;;;;;;11.50;2.22;;;6.10;99.90;;;;;;5077225;28;20405;-68
2023/03/04 09:39:27;;;;;;;13.85;2.03;;;6.10;99.90;;;;;;5090471;28;20131;-68
2023/03/04 09:41:56;;;;;;;11.05;2.08;;;6.20;99.90;;;;;;5090813;28;20032;-69
2023/03/04 09:44:28;;;;;;;12.73;2.22;;;6.20;99.90;;;;;;5073362;28;20375;-69
2023/03/04 09:46:57;;;;;;;11.57;2.53;;;6.30;99.90;;;;;;5086727;28;20054;-69
2023/03/04 09:49:24;;;;;;;12.32;2.83;;;6.50;99.90;;;;;;5084956;28;20062;-68
2023/03/04 09:52:17;;;;;;;23.95;2.13;;;6.40;99.90;;;;;;5089148;28;20435;-69
2023/03/04 09:55:02;;;;;;;12.32;2.08;;;6.60;99.90;;;;;;5089420;28;20044;-69
2023/03/04 09:58:32;;;;;;;15.20;2.15;;;6.70;99.90;;;;;;5083837;28;20101;-68
2023/03/04 10:01:02;;;;;;;10.75;1.88;;;6.70;99.90;;;;;;5065321;28;20055;-68
2023/03/04 10:04:06;;;;;;;12.05;2.13;;;6.70;99.90;;;;;;5074392;28;20052;-68
2023/03/04 10:06:33;;;;;;;21.23;3.35;;;6.70;99.90;;;;;;5063627;28;20452;-68
2023/03/04 10:09:00;;;;;;;23.60;3.53;;;6.60;99.90;;;;;;5076193;28;20171;-71
2023/03/04 10:11:40;;;;;;;16.10;3.17;;;6.40;99.90;;;;;;5075862;28;20044;-69
2023/03/04 10:14:21;;;;;;;21.13;3.65;;;6.40;99.90;;;;;;5077142;28;20044;-68
2023/03/04 10:16:56;;;;;;;24.90;3.78;;;6.40;99.90;;;;;;5071707;28;20044;-69
2023/03/04 10:19:56;;;;;;;17.42;3.55;;;6.50;99.90;;;;;;5078085;28;20056;-69
2023/03/04 10:22:37;;;;;;;30.60;3.50;;;6.60;99.90;;;;;;5075311;28;20059;-69
2023/03/04 10:25:29;;;;;;;19.52;3.30;;;6.60;99.90;;;;;;5065592;28;20576;-70
2023/03/04 10:28:01;;;;;;;20.23;4.43;;;6.60;99.90;;;;;;5068552;28;20111;-69
2023/03/04 10:30:48;;;;;;;19.15;3.17;;;6.60;99.90;;;;;;5065105;28;20101;-68
2023/03/04 10:33:18;;;;;;;22.48;3.75;;;6.60;99.90;;;;;;5063585;28;20414;-68
2023/03/04 10:36:07;;;;;;;16.65;3.00;;;6.60;99.90;;;;;;5071039;28;20048;-68
2023/03/04 10:38:40;;;;;;;27.45;4.22;;;6.60;99.90;;;;;;5055514;28;20182;-68
2023/03/04 10:41:14;;;;;;;16.13;3.05;;;6.60;99.90;;;;;;5069636;28;20119;-67
2023/03/04 10:43:42;;;;;;;21.52;2.97;;;6.70;99.90;;;;;;5072971;28;20051;-68
2023/03/04 10:46:10;;;;;;;12.07;3.00;;;6.80;99.90;;;;;;5066856;28;20133;-68
2023/03/04 10:48:40;;;;;;;16.50;2.63;;;6.80;99.90;;;;;;5075167;28;20041;-68
2023/03/04 10:51:27;;;;;;;20.33;3.05;;;6.80;99.90;;;;;;5057805;28;20049;-68
2023/03/04 10:54:04;;;;;;;28.30;3.03;;;6.80;99.90;;;;;;5057740;28;20075;-69
2023/03/04 10:56:41;;;;;;;14.02;2.72;;;6.80;99.90;;;;;;5065760;28;20056;-68
2023/03/04 10:59:45;;;;;;;11.35;2.50;;;6.80;99.90;;;;;;5063316;28;20033;-68
2023/03/04 11:02:28;;;;;;;20.40;3.47;;;6.70;99.90;;;;;;5069919;28;20040;-67
2023/03/04 11:05:03;;;;;;;28.42;3.72;;;6.60;99.90;;;;;;5073511;28;20135;-68
2023/03/04 11:07:31;;;;;;;20.35;3.75;;;6.60;99.90;;;;;;5071965;28;20040;-68
2023/03/04 11:10:17;;;;;;;21.58;3.85;;;6.60;99.90;;;;;;5072478;28;20041;-67
2023/03/04 11:13:10;;;;;;;13.57;2.65;;;6.60;99.90;;;;;;5063559;28;20460;-68
2023/03/04 11:15:53;;;;;;;19.15;2.90;;;6.60;99.90;;;;;;5069957;28;21763;-67
2023/03/04 11:18:26;;;;;;;26.80;4.28;;;6.70;99.90;;;;;;5068961;28;20040;-67
2023/03/04 11:20:54;;;;;;;22.15;3.88;;;6.70;99.90;;;;;;5074795;28;20064;-67
2023/03/04 11:23:42;;;;;;;20.35;3.53;;;7.00;99.90;;;;;;5074286;28;20037;-67
2023/03/04 11:26:13;;;;;;;25.75;3.80;;;7.20;99.90;;;;;;5059196;28;20094;-68
2023/03/04 11:28:48;;;;;;;17.42;3.05;;;7.30;99.90;;;;;;5069248;28;20049;-68
2023/03/04 11:31:33;;;;;;;12.82;2.92;;;7.20;99.90;;;;;;5068613;28;20045;-68
2023/03/04 11:34:16;;;;;;;18.40;4.03;;;7.10;99.90;;;;;;5062345;28;20048;-68
2023/03/04 11:36:56;;;;;;;17.08;2.88;;;7.00;99.90;;;;;;5068616;28;20041;-68
2023/03/04 11:39:45;;;;;;;17.13;3.22;;;7.00;99.90;;;;;;5064646;28;20043;-67
2023/03/04 11:42:39;;;;;;;17.77;2.80;;;6.80;99.90;;;;;;5056735;28;20045;-67
2023/03/04 11:45:15;;;;;;;17.13;3.20;;;6.70;99.90;;;;;;5067317;28;20066;-68
2023/03/04 11:47:59;;;;;;;21.27;3.28;;;6.80;99.90;;;;;;5062569;28;20036;-68
2023/03/04 11:51:19;;;;;;;11.90;3.10;;;7.30;99.90;;;;;;5069637;28;20052;-68
2023/03/04 11:54:16;;;;;;;17.35;3.83;;;7.70;99.90;;;;;;5062960;28;20518;-68
2023/03/04 11:56:46;;;;;;;21.48;4.20;;;7.80;99.90;;;;;;5085482;28;20051;-68
2023/03/04 11:59:19;;;;;;;10.75;2.72;;;7.70;99.90;;;;;;5079908;28;20055;-68
2023/03/04 12:01:49;;;;;;;22.48;3.35;;;7.60;99.90;;;;;;5068423;28;20040;-68
2023/03/04 12:04:33;;;;;;;20.65;3.25;;;7.60;99.90;;;;;;5075056;28;20049;-67
2023/03/04 12:07:34;;;;;;;19.98;3.80;;;7.80;99.90;;;;;;5075096;28;20040;-68
2023/03/04 12:10:08;;;;;;;17.73;3.67;;;7.80;99.90;;;;;;5073306;28;20044;-67
2023/03/04 12:13:00;;;;;;;21.63;3.67;;;7.80;99.90;;;;;;5065700;28;20047;-68
2023/03/04 12:15:53;;;;;;;20.63;3.33;;;7.90;99.90;;;;;;5073807;28;20385;-67
2023/03/04 12:18:59;;;;;;;8.57;2.33;;;8.00;99.90;;;;;;5063055;28;20051;-68
2023/03/04 12:21:33;;;;;;;16.17;3.17;;;8.00;99.90;;;;;;5054172;28;20087;-68
2023/03/04 12:24:17;;;;;;;15.50;3.55;;;7.80;99.90;;;;;;5057701;28;20402;-68
2023/03/04 12:27:00;;;;;;;20.65;3.85;;;7.60;99.90;;;;;;5071729;28;20048;-68
2023/03/04 12:29:35;;;;;;;18.52;3.33;;;7.70;99.90;;;;;;5054845;28;20040;-67
2023/03/04 12:32:14;;;;;;;15.93;3.70;;;8.10;99.90;;;;;;5068688;28;20507;-68
2023/03/04 12:34:46;;;;;;;20.63;2.78;;;8.30;99.90;;;;;;5067568;28;20048;-68
2023/03/04 12:37:45;;;;;;;18.38;3.20;;;8.10;99.90;;;;;;5065998;28;20048;-68
2023/03/04 12:40:14;;;;;;;16.77;3.15;;;7.80;99.90;;;;;;5064557;28;20044;-67
2023/03/04 12:42:51;;;;;;;16.70;2.90;;;7.80;99.90;;;;;;5075170;28;20472;-68
2023/03/04 12:45:32;;;;;;;15.40;2.75;;;7.90;99.90;;;;;;5073024;28;20040;-68
2023/03/04 12:48:32;;;;;;;15.25;2.80;;;8.00;99.90;;;;;;5070266;28;20036;-68
2023/03/04 12:51:01;;;;;;;;;;;8.10;99.90;;;;;;5069740;28;20082;-67
2023/03/04 12:53:32;;;;;;;19.05;3.50;;;8.00;99.90;;;;;;5064137;28;19921;-67
2023/03/04 12:55:59;;;;;;;30.45;4.43;;;7.70;99.90;;;;;;5065282;28;20078;-67
2023/03/04 12:58:28;;;;;;;14.45;2.85;;;7.40;99.90;;;;;;5065072;28;20036;-68
2023/03/04 13:01:32;;;;;;;13.43;2.95;;;7.20;99.90;;;;;;5070775;28;20548;-67
2023/03/04 13:04:09;;;;;;;12.90;2.25;;;7.10;99.90;;;;;;5072760;28;20049;-67